sensor_id;sensor_type;location;lat;lon;timestamp;P1;durP1;ratioP1;P2;durP2;ratioP2
75038;SDS011;63609;49.992;14.512;2023-05-19T00:03:30;9.18;;;4.05;;
75038;SDS011;63609;49.992;14.512;2023-05-19T00:06:00;7.22;;;3.90;;
75038;SDS011;63609;49.992;14.512;2023-05-19T00:08:31;6.88;;;3.33;;
75038;SDS011;63609;49.992;14.512;2023-05-19T00:11:00;9.88;;;4.00;;
75038;SDS011;63609;49.992;14.512;2023-05-19T00:13:27;9.80;;;4.00;;
75038;SDS011;63609;49.992;14.512;2023-05-19T00:15:55;13.25;;;4.10;;
75038;SDS011;63609;49.992;14.512;2023-05-19T00:18:22;7.97;;;4.70;;
75038;SDS011;63609;49.992;14.512;2023-05-19T00:20:49;8.32;;;3.63;;
75038;SDS011;63609;49.992;14.512;2023-05-19T00:23:17;7.32;;;3.25;;
75038;SDS011;63609;49.992;14.512;2023-05-19T00:25:44;7.68;;;4.13;;
75038;SDS011;63609;49.992;14.512;2023-05-19T00:28:11;8.90;;;3.55;;
75038;SDS011;63609;49.992;14.512;2023-05-19T00:30:38;7.05;;;3.33;;
75038;SDS011;63609;49.992;14.512;2023-05-19T00:33:04;5.53;;;3.42;;
75038;SDS011;63609;49.992;14.512;2023-05-19T00:35:31;9.95;;;3.83;;
75038;SDS011;63609;49.992;14.512;2023-05-19T00:37:58;7.30;;;3.30;;
75038;SDS011;63609;49.992;14.512;2023-05-19T00:40:27;6.97;;;3.45;;
75038;SDS011;63609;49.992;14.512;2023-05-19T00:42:57;5.05;;;3.08;;
75038;SDS011;63609;49.992;14.512;2023-05-19T00:45:24;6.88;;;3.33;;
75038;SDS011;63609;49.992;14.512;2023-05-19T00:47:50;7.47;;;3.70;;
75038;SDS011;63609;49.992;14.512;2023-05-19T00:50:17;5.68;;;3.50;;
75038;SDS011;63609;49.992;14.512;2023-05-19T00:52:44;8.30;;;3.78;;
75038;SDS011;63609;49.992;14.512;2023-05-19T00:55:11;6.85;;;3.15;;
75038;SDS011;63609;49.992;14.512;2023-05-19T00:57:39;7.15;;;3.30;;
75038;SDS011;63609;49.992;14.512;2023-05-19T01:00:08;6.47;;;3.30;;
75038;SDS011;63609;49.992;14.512;2023-05-19T01:02:36;7.85;;;3.78;;
75038;SDS011;63609;49.992;14.512;2023-05-19T01:05:06;8.13;;;3.72;;
75038;SDS011;63609;49.992;14.512;2023-05-19T01:07:33;7.53;;;3.47;;
75038;SDS011;63609;49.992;14.512;2023-05-19T01:10:02;8.05;;;3.25;;
75038;SDS011;63609;49.992;14.512;2023-05-19T01:12:30;6.00;;;3.67;;
75038;SDS011;63609;49.992;14.512;2023-05-19T01:14:56;6.40;;;2.97;;
75038;SDS011;63609;49.992;14.512;2023-05-19T01:20:13;6.57;;;3.50;;
75038;SDS011;63609;49.992;14.512;2023-05-19T01:31:39;11.57;;;4.00;;
75038;SDS011;63609;49.992;14.512;2023-05-19T01:34:08;7.53;;;3.30;;
75038;SDS011;63609;49.992;14.512;2023-05-19T01:36:38;6.30;;;3.03;;
75038;SDS011;63609;49.992;14.512;2023-05-19T01:39:07;7.30;;;3.70;;
75038;SDS011;63609;49.992;14.512;2023-05-19T01:41:35;7.00;;;3.17;;
75038;SDS011;63609;49.992;14.512;2023-05-19T01:44:03;8.55;;;3.58;;
75038;SDS011;63609;49.992;14.512;2023-05-19T01:46:30;4.85;;;3.25;;
75038;SDS011;63609;49.992;14.512;2023-05-19T01:48:57;6.38;;;3.17;;
75038;SDS011;63609;49.992;14.512;2023-05-19T01:51:25;7.85;;;3.72;;
75038;SDS011;63609;49.992;14.512;2023-05-19T01:53:53;8.50;;;3.35;;
75038;SDS011;63609;49.992;14.512;2023-05-19T01:56:29;6.85;;;3.30;;
75038;SDS011;63609;49.992;14.512;2023-05-19T01:59:12;8.38;;;3.40;;
75038;SDS011;63609;49.992;14.512;2023-05-19T02:01:52;6.88;;;3.47;;
75038;SDS011;63609;49.992;14.512;2023-05-19T02:10:13;6.97;;;3.40;;
75038;SDS011;63609;49.992;14.512;2023-05-19T02:12:31;7.63;;;3.80;;
75038;SDS011;63609;49.992;14.512;2023-05-19T02:15:06;6.68;;;3.40;;
75038;SDS011;63609;49.992;14.512;2023-05-19T02:17:37;6.57;;;3.17;;
75038;SDS011;63609;49.992;14.512;2023-05-19T02:20:08;8.68;;;3.42;;
75038;SDS011;63609;49.992;14.512;2023-05-19T02:22:36;8.50;;;3.80;;
75038;SDS011;63609;49.992;14.512;2023-05-19T02:25:03;6.82;;;3.75;;
75038;SDS011;63609;49.992;14.512;2023-05-19T02:27:31;8.82;;;3.70;;
75038;SDS011;63609;49.992;14.512;2023-05-19T02:30:01;6.55;;;3.38;;
75038;SDS011;63609;49.992;14.512;2023-05-19T02:32:30;6.70;;;3.50;;
75038;SDS011;63609;49.992;14.512;2023-05-19T02:34:57;6.35;;;3.30;;
75038;SDS011;63609;49.992;14.512;2023-05-19T02:37:24;7.38;;;3.13;;
75038;SDS011;63609;49.992;14.512;2023-05-19T02:39:55;6.40;;;3.60;;
75038;SDS011;63609;49.992;14.512;2023-05-19T02:42:22;7.45;;;3.38;;
75038;SDS011;63609;49.992;14.512;2023-05-19T02:44:49;9.43;;;3.80;;
75038;SDS011;63609;49.992;14.512;2023-05-19T02:47:17;5.85;;;3.40;;
75038;SDS011;63609;49.992;14.512;2023-05-19T02:49:43;6.57;;;3.30;;
75038;SDS011;63609;49.992;14.512;2023-05-19T02:52:10;4.93;;;3.08;;
75038;SDS011;63609;49.992;14.512;2023-05-19T02:54:38;6.63;;;3.60;;
75038;SDS011;63609;49.992;14.512;2023-05-19T02:57:05;8.00;;;3.58;;
75038;SDS011;63609;49.992;14.512;2023-05-19T02:59:32;7.18;;;3.80;;
75038;SDS011;63609;49.992;14.512;2023-05-19T03:01:59;7.07;;;3.60;;
75038;SDS011;63609;49.992;14.512;2023-05-19T03:04:28;9.15;;;4.43;;
75038;SDS011;63609;49.992;14.512;2023-05-19T03:06:55;9.73;;;4.40;;
75038;SDS011;63609;49.992;14.512;2023-05-19T03:09:27;7.28;;;3.63;;
75038;SDS011;63609;49.992;14.512;2023-05-19T03:11:54;6.03;;;3.38;;
75038;SDS011;63609;49.992;14.512;2023-05-19T03:14:21;7.22;;;4.10;;
75038;SDS011;63609;49.992;14.512;2023-05-19T03:16:50;7.78;;;3.85;;
75038;SDS011;63609;49.992;14.512;2023-05-19T03:19:17;9.55;;;3.65;;
75038;SDS011;63609;49.992;14.512;2023-05-19T03:21:44;12.75;;;3.80;;
75038;SDS011;63609;49.992;14.512;2023-05-19T03:24:12;7.05;;;3.70;;
75038;SDS011;63609;49.992;14.512;2023-05-19T03:26:39;8.57;;;4.05;;
75038;SDS011;63609;49.992;14.512;2023-05-19T03:29:07;6.78;;;4.30;;
75038;SDS011;63609;49.992;14.512;2023-05-19T03:31:36;8.88;;;4.07;;
75038;SDS011;63609;49.992;14.512;2023-05-19T03:34:03;7.28;;;3.72;;
75038;SDS011;63609;49.992;14.512;2023-05-19T03:36:30;7.10;;;4.00;;
75038;SDS011;63609;49.992;14.512;2023-05-19T03:38:59;8.13;;;4.68;;
75038;SDS011;63609;49.992;14.512;2023-05-19T03:41:26;6.85;;;4.05;;
75038;SDS011;63609;49.992;14.512;2023-05-19T03:43:55;10.48;;;4.53;;
75038;SDS011;63609;49.992;14.512;2023-05-19T03:46:22;8.35;;;4.50;;
75038;SDS011;63609;49.992;14.512;2023-05-19T03:48:50;8.80;;;4.40;;
75038;SDS011;63609;49.992;14.512;2023-05-19T03:51:27;8.07;;;4.47;;
75038;SDS011;63609;49.992;14.512;2023-05-19T03:54:03;8.75;;;4.13;;
75038;SDS011;63609;49.992;14.512;2023-05-19T03:56:30;8.10;;;4.32;;
75038;SDS011;63609;49.992;14.512;2023-05-19T03:59:00;9.32;;;4.28;;
75038;SDS011;63609;49.992;14.512;2023-05-19T04:01:27;7.78;;;3.70;;
75038;SDS011;63609;49.992;14.512;2023-05-19T04:03:56;11.02;;;4.40;;
75038;SDS011;63609;49.992;14.512;2023-05-19T04:06:23;8.43;;;3.92;;
75038;SDS011;63609;49.992;14.512;2023-05-19T04:08:50;6.50;;;4.13;;
75038;SDS011;63609;49.992;14.512;2023-05-19T04:11:17;7.68;;;3.58;;
75038;SDS011;63609;49.992;14.512;2023-05-19T04:13:45;9.48;;;4.03;;
75038;SDS011;63609;49.992;14.512;2023-05-19T04:16:12;7.75;;;4.05;;
75038;SDS011;63609;49.992;14.512;2023-05-19T04:18:40;9.15;;;3.50;;
75038;SDS011;63609;49.992;14.512;2023-05-19T04:21:07;9.82;;;4.22;;
75038;SDS011;63609;49.992;14.512;2023-05-19T04:23:37;5.93;;;3.65;;
75038;SDS011;63609;49.992;14.512;2023-05-19T04:26:04;7.93;;;3.63;;
75038;SDS011;63609;49.992;14.512;2023-05-19T04:28:32;6.85;;;3.10;;
75038;SDS011;63609;49.992;14.512;2023-05-19T04:31:02;8.02;;;3.50;;
75038;SDS011;63609;49.992;14.512;2023-05-19T04:33:29;7.80;;;3.80;;
75038;SDS011;63609;49.992;14.512;2023-05-19T04:35:56;7.60;;;4.00;;
75038;SDS011;63609;49.992;14.512;2023-05-19T04:38:25;6.18;;;3.55;;
75038;SDS011;63609;49.992;14.512;2023-05-19T04:40:55;6.38;;;3.47;;
75038;SDS011;63609;49.992;14.512;2023-05-19T04:43:26;7.50;;;3.70;;
75038;SDS011;63609;49.992;14.512;2023-05-19T04:45:53;8.50;;;3.95;;
75038;SDS011;63609;49.992;14.512;2023-05-19T04:48:21;8.45;;;4.20;;
75038;SDS011;63609;49.992;14.512;2023-05-19T04:50:49;8.27;;;4.03;;
75038;SDS011;63609;49.992;14.512;2023-05-19T04:53:17;6.22;;;3.30;;
75038;SDS011;63609;49.992;14.512;2023-05-19T04:55:44;5.32;;;3.45;;
75038;SDS011;63609;49.992;14.512;2023-05-19T04:58:12;6.60;;;3.70;;
75038;SDS011;63609;49.992;14.512;2023-05-19T05:00:38;8.63;;;4.25;;
75038;SDS011;63609;49.992;14.512;2023-05-19T05:03:07;7.65;;;3.72;;
75038;SDS011;63609;49.992;14.512;2023-05-19T05:05:34;7.43;;;3.30;;
75038;SDS011;63609;49.992;14.512;2023-05-19T05:08:01;9.85;;;3.53;;
75038;SDS011;63609;49.992;14.512;2023-05-19T05:10:34;6.55;;;3.58;;
75038;SDS011;63609;49.992;14.512;2023-05-19T05:13:01;6.80;;;3.85;;
75038;SDS011;63609;49.992;14.512;2023-05-19T05:15:30;6.90;;;4.07;;
75038;SDS011;63609;49.992;14.512;2023-05-19T05:17:59;11.02;;;3.53;;
75038;SDS011;63609;49.992;14.512;2023-05-19T05:20:27;10.18;;;3.78;;
75038;SDS011;63609;49.992;14.512;2023-05-19T05:22:55;9.38;;;3.40;;
75038;SDS011;63609;49.992;14.512;2023-05-19T05:25:24;7.15;;;3.67;;
75038;SDS011;63609;49.992;14.512;2023-05-19T05:27:51;7.25;;;3.78;;
75038;SDS011;63609;49.992;14.512;2023-05-19T05:30:18;6.38;;;3.80;;
75038;SDS011;63609;49.992;14.512;2023-05-19T05:32:45;7.50;;;3.97;;
75038;SDS011;63609;49.992;14.512;2023-05-19T05:35:35;5.22;;;3.35;;
75038;SDS011;63609;49.992;14.512;2023-05-19T05:38:05;8.05;;;3.78;;
75038;SDS011;63609;49.992;14.512;2023-05-19T05:40:35;8.63;;;3.85;;
75038;SDS011;63609;49.992;14.512;2023-05-19T05:43:03;7.47;;;3.65;;
75038;SDS011;63609;49.992;14.512;2023-05-19T05:45:35;7.00;;;4.00;;
75038;SDS011;63609;49.992;14.512;2023-05-19T05:48:02;9.07;;;3.83;;
75038;SDS011;63609;49.992;14.512;2023-05-19T05:50:30;10.88;;;4.15;;
75038;SDS011;63609;49.992;14.512;2023-05-19T05:52:57;8.10;;;3.70;;
75038;SDS011;63609;49.992;14.512;2023-05-19T05:55:26;10.07;;;4.03;;
75038;SDS011;63609;49.992;14.512;2023-05-19T05:57:54;6.82;;;4.00;;
75038;SDS011;63609;49.992;14.512;2023-05-19T06:00:22;7.75;;;3.33;;
75038;SDS011;63609;49.992;14.512;2023-05-19T06:02:51;6.35;;;3.58;;
75038;SDS011;63609;49.992;14.512;2023-05-19T06:05:19;5.70;;;3.70;;
75038;SDS011;63609;49.992;14.512;2023-05-19T06:07:47;6.38;;;3.60;;
75038;SDS011;63609;49.992;14.512;2023-05-19T06:10:21;6.72;;;3.80;;
75038;SDS011;63609;49.992;14.512;2023-05-19T06:12:48;8.15;;;3.38;;
75038;SDS011;63609;49.992;14.512;2023-05-19T06:15:15;6.30;;;3.42;;
75038;SDS011;63609;49.992;14.512;2023-05-19T06:17:55;6.43;;;3.25;;
75038;SDS011;63609;49.992;14.512;2023-05-19T06:20:22;6.45;;;3.63;;
75038;SDS011;63609;49.992;14.512;2023-05-19T06:22:49;7.57;;;3.65;;
75038;SDS011;63609;49.992;14.512;2023-05-19T06:25:19;5.43;;;3.13;;
75038;SDS011;63609;49.992;14.512;2023-05-19T06:27:46;4.85;;;3.30;;
75038;SDS011;63609;49.992;14.512;2023-05-19T06:30:14;7.68;;;3.20;;
75038;SDS011;63609;49.992;14.512;2023-05-19T06:33:01;7.53;;;3.63;;
75038;SDS011;63609;49.992;14.512;2023-05-19T06:35:29;5.85;;;3.22;;
75038;SDS011;63609;49.992;14.512;2023-05-19T06:37:57;7.07;;;3.40;;
75038;SDS011;63609;49.992;14.512;2023-05-19T06:40:24;6.80;;;3.42;;
75038;SDS011;63609;49.992;14.512;2023-05-19T06:42:52;6.88;;;3.70;;
75038;SDS011;63609;49.992;14.512;2023-05-19T06:45:51;5.70;;;3.33;;
75038;SDS011;63609;49.992;14.512;2023-05-19T06:48:18;5.25;;;3.50;;
75038;SDS011;63609;49.992;14.512;2023-05-19T06:50:46;6.47;;;3.40;;
75038;SDS011;63609;49.992;14.512;2023-05-19T06:53:15;5.85;;;3.38;;
75038;SDS011;63609;49.992;14.512;2023-05-19T06:55:43;5.00;;;3.33;;
75038;SDS011;63609;49.992;14.512;2023-05-19T06:58:25;7.13;;;3.40;;
75038;SDS011;63609;49.992;14.512;2023-05-19T07:00:54;5.68;;;3.38;;
75038;SDS011;63609;49.992;14.512;2023-05-19T07:03:25;5.15;;;3.33;;
75038;SDS011;63609;49.992;14.512;2023-05-19T07:05:53;8.68;;;3.45;;
75038;SDS011;63609;49.992;14.512;2023-05-19T07:08:21;7.72;;;3.88;;
75038;SDS011;63609;49.992;14.512;2023-05-19T07:10:48;5.07;;;3.08;;
75038;SDS011;63609;49.992;14.512;2023-05-19T07:13:16;5.82;;;3.17;;
75038;SDS011;63609;49.992;14.512;2023-05-19T07:15:43;5.53;;;3.28;;
75038;SDS011;63609;49.992;14.512;2023-05-19T07:18:11;9.13;;;3.72;;
75038;SDS011;63609;49.992;14.512;2023-05-19T07:20:40;5.57;;;2.90;;
75038;SDS011;63609;49.992;14.512;2023-05-19T07:23:07;5.65;;;3.28;;
75038;SDS011;63609;49.992;14.512;2023-05-19T07:25:34;6.55;;;3.63;;
75038;SDS011;63609;49.992;14.512;2023-05-19T07:28:01;6.38;;;3.22;;
75038;SDS011;63609;49.992;14.512;2023-05-19T07:30:28;6.55;;;3.85;;
75038;SDS011;63609;49.992;14.512;2023-05-19T07:32:55;6.50;;;3.10;;
75038;SDS011;63609;49.992;14.512;2023-05-19T07:35:22;7.43;;;3.35;;
75038;SDS011;63609;49.992;14.512;2023-05-19T07:37:50;5.07;;;3.17;;
75038;SDS011;63609;49.992;14.512;2023-05-19T07:40:17;11.23;;;3.63;;
75038;SDS011;63609;49.992;14.512;2023-05-19T07:42:44;6.15;;;3.35;;
75038;SDS011;63609;49.992;14.512;2023-05-19T07:45:11;4.85;;;2.72;;
75038;SDS011;63609;49.992;14.512;2023-05-19T07:47:38;7.28;;;2.88;;
75038;SDS011;63609;49.992;14.512;2023-05-19T07:50:05;4.95;;;3.15;;
75038;SDS011;63609;49.992;14.512;2023-05-19T07:52:32;6.43;;;3.20;;
75038;SDS011;63609;49.992;14.512;2023-05-19T07:54:59;6.10;;;2.90;;
75038;SDS011;63609;49.992;14.512;2023-05-19T07:57:26;5.47;;;2.60;;
75038;SDS011;63609;49.992;14.512;2023-05-19T07:59:53;6.18;;;2.70;;
75038;SDS011;63609;49.992;14.512;2023-05-19T08:02:20;6.88;;;3.35;;
75038;SDS011;63609;49.992;14.512;2023-05-19T08:04:47;6.65;;;3.00;;
75038;SDS011;63609;49.992;14.512;2023-05-19T08:07:15;5.55;;;3.10;;
75038;SDS011;63609;49.992;14.512;2023-05-19T08:09:42;6.32;;;3.13;;
75038;SDS011;63609;49.992;14.512;2023-05-19T08:12:08;6.15;;;2.90;;
75038;SDS011;63609;49.992;14.512;2023-05-19T08:14:35;7.00;;;3.30;;
75038;SDS011;63609;49.992;14.512;2023-05-19T08:17:02;5.72;;;2.35;;
75038;SDS011;63609;49.992;14.512;2023-05-19T08:19:34;5.97;;;2.80;;
75038;SDS011;63609;49.992;14.512;2023-05-19T08:22:06;5.57;;;3.03;;
75038;SDS011;63609;49.992;14.512;2023-05-19T08:24:33;4.63;;;3.00;;
75038;SDS011;63609;49.992;14.512;2023-05-19T08:27:09;4.82;;;2.78;;
75038;SDS011;63609;49.992;14.512;2023-05-19T08:29:38;3.90;;;2.50;;
75038;SDS011;63609;49.992;14.512;2023-05-19T08:32:05;5.95;;;3.03;;
75038;SDS011;63609;49.992;14.512;2023-05-19T08:34:32;7.47;;;3.20;;
75038;SDS011;63609;49.992;14.512;2023-05-19T08:36:59;4.47;;;2.80;;
75038;SDS011;63609;49.992;14.512;2023-05-19T08:39:27;4.60;;;3.00;;
75038;SDS011;63609;49.992;14.512;2023-05-19T08:41:57;6.47;;;3.10;;
75038;SDS011;63609;49.992;14.512;2023-05-19T08:44:28;5.70;;;2.70;;
75038;SDS011;63609;49.992;14.512;2023-05-19T08:47:14;5.35;;;2.90;;
75038;SDS011;63609;49.992;14.512;2023-05-19T08:49:45;6.22;;;2.80;;
75038;SDS011;63609;49.992;14.512;2023-05-19T08:53:00;6.03;;;3.00;;
75038;SDS011;63609;49.992;14.512;2023-05-19T08:55:30;5.10;;;2.38;;
75038;SDS011;63609;49.992;14.512;2023-05-19T08:58:16;5.03;;;2.85;;
75038;SDS011;63609;49.992;14.512;2023-05-19T09:03:14;6.38;;;2.80;;
75038;SDS011;63609;49.992;14.512;2023-05-19T09:05:49;5.03;;;3.05;;
75038;SDS011;63609;49.992;14.512;2023-05-19T09:08:16;4.63;;;3.35;;
75038;SDS011;63609;49.992;14.512;2023-05-19T09:10:43;5.97;;;3.03;;
75038;SDS011;63609;49.992;14.512;2023-05-19T09:13:11;5.18;;;2.60;;
75038;SDS011;63609;49.992;14.512;2023-05-19T09:15:37;6.00;;;3.03;;
75038;SDS011;63609;49.992;14.512;2023-05-19T09:18:07;5.38;;;2.60;;
75038;SDS011;63609;49.992;14.512;2023-05-19T09:20:36;5.47;;;2.72;;
75038;SDS011;63609;49.992;14.512;2023-05-19T09:23:05;4.68;;;2.42;;
75038;SDS011;63609;49.992;14.512;2023-05-19T09:25:31;5.95;;;2.70;;
75038;SDS011;63609;49.992;14.512;2023-05-19T09:27:59;7.30;;;3.05;;
75038;SDS011;63609;49.992;14.512;2023-05-19T09:30:26;5.93;;;2.90;;
75038;SDS011;63609;49.992;14.512;2023-05-19T09:32:53;5.10;;;2.58;;
75038;SDS011;63609;49.992;14.512;2023-05-19T09:35:20;4.20;;;2.55;;
75038;SDS011;63609;49.992;14.512;2023-05-19T09:37:47;5.50;;;3.00;;
75038;SDS011;63609;49.992;14.512;2023-05-19T09:40:14;5.15;;;2.53;;
75038;SDS011;63609;49.992;14.512;2023-05-19T09:42:41;5.25;;;2.60;;
75038;SDS011;63609;49.992;14.512;2023-05-19T09:45:09;6.00;;;2.78;;
75038;SDS011;63609;49.992;14.512;2023-05-19T09:47:38;5.85;;;2.65;;
75038;SDS011;63609;49.992;14.512;2023-05-19T09:50:10;4.70;;;2.58;;
75038;SDS011;63609;49.992;14.512;2023-05-19T09:52:43;6.97;;;2.78;;
75038;SDS011;63609;49.992;14.512;2023-05-19T09:55:11;5.65;;;2.90;;
75038;SDS011;63609;49.992;14.512;2023-05-19T09:57:40;6.43;;;2.92;;
75038;SDS011;63609;49.992;14.512;2023-05-19T10:00:08;5.82;;;2.58;;
75038;SDS011;63609;49.992;14.512;2023-05-19T10:02:40;5.90;;;2.80;;
75038;SDS011;63609;49.992;14.512;2023-05-19T10:05:10;5.10;;;2.92;;
75038;SDS011;63609;49.992;14.512;2023-05-19T10:07:49;4.28;;;2.40;;
75038;SDS011;63609;49.992;14.512;2023-05-19T10:10:21;3.78;;;2.15;;
75038;SDS011;63609;49.992;14.512;2023-05-19T10:12:49;4.72;;;2.30;;
75038;SDS011;63609;49.992;14.512;2023-05-19T10:15:17;5.57;;;2.47;;
75038;SDS011;63609;49.992;14.512;2023-05-19T10:17:55;3.88;;;2.05;;
75038;SDS011;63609;49.992;14.512;2023-05-19T10:20:27;4.53;;;2.30;;
75038;SDS011;63609;49.992;14.512;2023-05-19T10:22:58;7.18;;;2.30;;
75038;SDS011;63609;49.992;14.512;2023-05-19T10:25:27;5.30;;;2.22;;
75038;SDS011;63609;49.992;14.512;2023-05-19T10:28:04;4.38;;;2.00;;
75038;SDS011;63609;49.992;14.512;2023-05-19T10:30:37;3.83;;;1.85;;
75038;SDS011;63609;49.992;14.512;2023-05-19T10:33:08;3.63;;;2.58;;
75038;SDS011;63609;49.992;14.512;2023-05-19T10:38:26;4.88;;;2.03;;
75038;SDS011;63609;49.992;14.512;2023-05-19T10:46:47;4.38;;;2.30;;
75038;SDS011;63609;49.992;14.512;2023-05-19T10:49:21;6.53;;;2.47;;
75038;SDS011;63609;49.992;14.512;2023-05-19T10:51:55;3.97;;;1.65;;
75038;SDS011;63609;49.992;14.512;2023-05-19T10:54:37;4.10;;;1.83;;
75038;SDS011;63609;49.992;14.512;2023-05-19T10:57:06;4.60;;;1.60;;
75038;SDS011;63609;49.992;14.512;2023-05-19T10:59:34;3.42;;;1.98;;
75038;SDS011;63609;49.992;14.512;2023-05-19T11:02:05;3.55;;;2.10;;
75038;SDS011;63609;49.992;14.512;2023-05-19T11:04:37;3.53;;;1.92;;
75038;SDS011;63609;49.992;14.512;2023-05-19T11:07:17;4.75;;;1.90;;
75038;SDS011;63609;49.992;14.512;2023-05-19T11:09:50;4.10;;;1.90;;
75038;SDS011;63609;49.992;14.512;2023-05-19T11:12:21;4.25;;;2.00;;
75038;SDS011;63609;49.992;14.512;2023-05-19T11:14:51;3.67;;;1.92;;
75038;SDS011;63609;49.992;14.512;2023-05-19T11:17:19;4.75;;;2.13;;
75038;SDS011;63609;49.992;14.512;2023-05-19T11:19:51;3.58;;;2.30;;
75038;SDS011;63609;49.992;14.512;2023-05-19T11:22:24;4.72;;;2.30;;
75038;SDS011;63609;49.992;14.512;2023-05-19T11:24:55;4.35;;;2.20;;
75038;SDS011;63609;49.992;14.512;2023-05-19T11:29:54;4.38;;;2.38;;
75038;SDS011;63609;49.992;14.512;2023-05-19T11:32:24;4.63;;;2.40;;
75038;SDS011;63609;49.992;14.512;2023-05-19T11:34:53;4.03;;;2.28;;
75038;SDS011;63609;49.992;14.512;2023-05-19T11:37:29;4.88;;;2.22;;
75038;SDS011;63609;49.992;14.512;2023-05-19T11:40:00;3.40;;;2.17;;
75038;SDS011;63609;49.992;14.512;2023-05-19T11:42:28;4.07;;;2.28;;
75038;SDS011;63609;49.992;14.512;2023-05-19T11:44:56;5.00;;;2.50;;
75038;SDS011;63609;49.992;14.512;2023-05-19T11:47:23;7.00;;;2.08;;
75038;SDS011;63609;49.992;14.512;2023-05-19T11:49:52;4.95;;;2.45;;
75038;SDS011;63609;49.992;14.512;2023-05-19T11:52:21;4.85;;;2.22;;
75038;SDS011;63609;49.992;14.512;2023-05-19T11:54:49;4.80;;;2.30;;
75038;SDS011;63609;49.992;14.512;2023-05-19T11:57:17;3.72;;;2.65;;
75038;SDS011;63609;49.992;14.512;2023-05-19T11:59:44;4.35;;;2.65;;
75038;SDS011;63609;49.992;14.512;2023-05-19T12:02:20;5.80;;;2.25;;
75038;SDS011;63609;49.992;14.512;2023-05-19T12:04:58;3.80;;;2.08;;
75038;SDS011;63609;49.992;14.512;2023-05-19T12:07:25;3.67;;;2.08;;
75038;SDS011;63609;49.992;14.512;2023-05-19T12:09:53;3.92;;;2.10;;
75038;SDS011;63609;49.992;14.512;2023-05-19T12:12:30;3.75;;;2.17;;
75038;SDS011;63609;49.992;14.512;2023-05-19T12:14:58;4.97;;;1.95;;
75038;SDS011;63609;49.992;14.512;2023-05-19T12:17:33;4.82;;;2.50;;
75038;SDS011;63609;49.992;14.512;2023-05-19T12:20:02;4.25;;;2.10;;
75038;SDS011;63609;49.992;14.512;2023-05-19T12:22:31;4.20;;;2.20;;
75038;SDS011;63609;49.992;14.512;2023-05-19T12:25:01;6.47;;;2.70;;
75038;SDS011;63609;49.992;14.512;2023-05-19T12:27:35;5.45;;;2.10;;
75038;SDS011;63609;49.992;14.512;2023-05-19T12:30:11;5.97;;;2.60;;
75038;SDS011;63609;49.992;14.512;2023-05-19T12:32:43;5.72;;;3.53;;
75038;SDS011;63609;49.992;14.512;2023-05-19T12:35:19;3.60;;;2.40;;
75038;SDS011;63609;49.992;14.512;2023-05-19T12:37:51;4.10;;;2.30;;
75038;SDS011;63609;49.992;14.512;2023-05-19T12:40:21;3.35;;;1.70;;
75038;SDS011;63609;49.992;14.512;2023-05-19T12:42:49;5.25;;;2.10;;
75038;SDS011;63609;49.992;14.512;2023-05-19T12:45:22;4.30;;;2.40;;
75038;SDS011;63609;49.992;14.512;2023-05-19T12:47:51;6.65;;;2.60;;
75038;SDS011;63609;49.992;14.512;2023-05-19T12:50:18;4.00;;;1.90;;
75038;SDS011;63609;49.992;14.512;2023-05-19T12:52:46;4.38;;;2.30;;
75038;SDS011;63609;49.992;14.512;2023-05-19T12:55:21;5.03;;;2.15;;
75038;SDS011;63609;49.992;14.512;2023-05-19T12:57:57;5.32;;;1.92;;
75038;SDS011;63609;49.992;14.512;2023-05-19T13:00:32;3.15;;;1.75;;
75038;SDS011;63609;49.992;14.512;2023-05-19T13:03:02;3.28;;;1.75;;
75038;SDS011;63609;49.992;14.512;2023-05-19T13:05:39;6.05;;;2.10;;
75038;SDS011;63609;49.992;14.512;2023-05-19T13:08:22;5.00;;;2.35;;
75038;SDS011;63609;49.992;14.512;2023-05-19T13:10:50;3.20;;;2.10;;
75038;SDS011;63609;49.992;14.512;2023-05-19T13:13:23;3.72;;;1.92;;
75038;SDS011;63609;49.992;14.512;2023-05-19T13:15:53;4.85;;;2.28;;
75038;SDS011;63609;49.992;14.512;2023-05-19T13:18:30;2.92;;;1.75;;
75038;SDS011;63609;49.992;14.512;2023-05-19T13:21:00;5.20;;;2.20;;
75038;SDS011;63609;49.992;14.512;2023-05-19T13:23:31;4.97;;;2.20;;
75038;SDS011;63609;49.992;14.512;2023-05-19T13:25:58;3.40;;;2.08;;
75038;SDS011;63609;49.992;14.512;2023-05-19T13:28:25;3.90;;;1.70;;
75038;SDS011;63609;49.992;14.512;2023-05-19T13:30:53;5.25;;;2.28;;
75038;SDS011;63609;49.992;14.512;2023-05-19T13:33:21;4.68;;;2.10;;
75038;SDS011;63609;49.992;14.512;2023-05-19T13:35:48;4.28;;;2.42;;
75038;SDS011;63609;49.992;14.512;2023-05-19T13:38:18;3.58;;;1.92;;
75038;SDS011;63609;49.992;14.512;2023-05-19T13:40:45;4.32;;;2.20;;
75038;SDS011;63609;49.992;14.512;2023-05-19T13:43:13;3.25;;;2.00;;
75038;SDS011;63609;49.992;14.512;2023-05-19T13:45:42;4.90;;;2.05;;
75038;SDS011;63609;49.992;14.512;2023-05-19T13:48:19;2.85;;;1.55;;
75038;SDS011;63609;49.992;14.512;2023-05-19T13:50:46;4.35;;;1.95;;
75038;SDS011;63609;49.992;14.512;2023-05-19T13:53:13;3.47;;;1.90;;
75038;SDS011;63609;49.992;14.512;2023-05-19T13:55:40;4.15;;;1.90;;
75038;SDS011;63609;49.992;14.512;2023-05-19T13:58:07;4.03;;;2.00;;
75038;SDS011;63609;49.992;14.512;2023-05-19T14:00:36;4.13;;;1.83;;
75038;SDS011;63609;49.992;14.512;2023-05-19T14:03:04;2.80;;;1.60;;
75038;SDS011;63609;49.992;14.512;2023-05-19T14:05:33;4.35;;;2.05;;
75038;SDS011;63609;49.992;14.512;2023-05-19T14:08:07;4.22;;;2.50;;
75038;SDS011;63609;49.992;14.512;2023-05-19T14:10:39;5.07;;;3.08;;
75038;SDS011;63609;49.992;14.512;2023-05-19T14:13:08;4.60;;;2.55;;
75038;SDS011;63609;49.992;14.512;2023-05-19T14:15:57;2.97;;;2.10;;
75038;SDS011;63609;49.992;14.512;2023-05-19T14:18:24;3.88;;;2.17;;
75038;SDS011;63609;49.992;14.512;2023-05-19T14:20:55;3.90;;;2.20;;
75038;SDS011;63609;49.992;14.512;2023-05-19T14:23:22;4.65;;;3.10;;
75038;SDS011;63609;49.992;14.512;2023-05-19T14:25:54;3.88;;;2.20;;
75038;SDS011;63609;49.992;14.512;2023-05-19T14:28:22;3.65;;;2.35;;
75038;SDS011;63609;49.992;14.512;2023-05-19T14:30:49;5.28;;;2.53;;
75038;SDS011;63609;49.992;14.512;2023-05-19T14:33:17;3.35;;;2.03;;
75038;SDS011;63609;49.992;14.512;2023-05-19T14:35:46;4.35;;;2.40;;
75038;SDS011;63609;49.992;14.512;2023-05-19T14:38:19;3.97;;;2.42;;
75038;SDS011;63609;49.992;14.512;2023-05-19T14:40:56;4.05;;;2.20;;
75038;SDS011;63609;49.992;14.512;2023-05-19T14:43:26;4.13;;;2.50;;
75038;SDS011;63609;49.992;14.512;2023-05-19T14:45:55;5.15;;;2.13;;
75038;SDS011;63609;49.992;14.512;2023-05-19T14:48:28;5.28;;;2.55;;
75038;SDS011;63609;49.992;14.512;2023-05-19T14:51:00;5.97;;;2.45;;
75038;SDS011;63609;49.992;14.512;2023-05-19T14:53:42;3.97;;;2.53;;
75038;SDS011;63609;49.992;14.512;2023-05-19T14:56:12;6.60;;;3.03;;
75038;SDS011;63609;49.992;14.512;2023-05-19T14:58:50;5.70;;;2.70;;
75038;SDS011;63609;49.992;14.512;2023-05-19T15:01:26;5.63;;;3.28;;
75038;SDS011;63609;49.992;14.512;2023-05-19T15:03:54;5.72;;;2.53;;
75038;SDS011;63609;49.992;14.512;2023-05-19T15:06:26;5.72;;;2.70;;
75038;SDS011;63609;49.992;14.512;2023-05-19T15:08:53;4.65;;;2.88;;
75038;SDS011;63609;49.992;14.512;2023-05-19T15:11:25;4.25;;;2.30;;
75038;SDS011;63609;49.992;14.512;2023-05-19T15:14:02;5.20;;;3.17;;
75038;SDS011;63609;49.992;14.512;2023-05-19T15:16:32;4.00;;;2.42;;
75038;SDS011;63609;49.992;14.512;2023-05-19T15:19:12;4.90;;;3.13;;
75038;SDS011;63609;49.992;14.512;2023-05-19T15:21:40;4.43;;;2.90;;